Time;durP1;ratioP1;P1;durP2;ratioP2;P2;SDS_P1;SDS_P2;PMS_P1;PMS_P2;Temp;Humidity;BMP_temperature;BMP_pressure;BME280_temperature;BME280_humidity;BME280_pressure;Samples;Min_cycle;Max_cycle;Signal;HPM_P1;HPM_P2
2021/01/22 00:00:15;;;;;;;3.05;1.73;;;22.40;34.60;;;;;;5049502;28;20610;-64
2021/01/22 00:02:42;;;;;;;4.45;2.30;;;22.40;34.60;;;;;;5048365;28;20557;-61
2021/01/22 00:05:09;;;;;;;3.25;2.10;;;22.40;34.60;;;;;;5049803;28;20041;-61
2021/01/22 00:07:37;;;;;;;3.47;2.22;;;22.40;34.60;;;;;;5049815;28;20097;-61
2021/01/22 00:10:04;;;;;;;4.32;2.20;;;22.40;34.60;;;;;;5048649;28;20040;-61
2021/01/22 00:12:32;;;;;;;3.60;1.90;;;22.40;34.60;;;;;;5049741;28;20536;-61
2021/01/22 00:14:58;;;;;;;4.35;2.65;;;22.40;34.60;;;;;;5050133;28;20425;-61
2021/01/22 00:17:25;;;;;;;3.30;1.80;;;22.50;34.60;;;;;;5048117;28;20045;-61
2021/01/22 00:19:52;;;;;;;2.65;1.67;;;22.50;34.60;;;;;;5049960;28;20053;-61
2021/01/22 00:22:19;;;;;;;3.83;2.33;;;22.50;34.60;;;;;;5049076;28;20041;-61
2021/01/22 00:24:45;;;;;;;3.25;1.90;;;22.40;34.50;;;;;;5049876;28;20087;-61
2021/01/22 00:27:12;;;;;;;3.35;1.83;;;22.50;34.60;;;;;;5048915;28;20130;-61
2021/01/22 00:29:39;;;;;;;4.20;2.00;;;22.50;34.60;;;;;;5049068;28;20121;-61
2021/01/22 00:32:05;;;;;;;3.13;1.70;;;22.40;34.50;;;;;;5048768;28;20044;-61
2021/01/22 00:34:32;;;;;;;3.85;2.38;;;22.40;34.60;;;;;;5049337;28;20041;-61
2021/01/22 00:36:59;;;;;;;4.30;1.80;;;22.40;34.60;;;;;;5049008;28;20110;-61
2021/01/22 00:39:25;;;;;;;2.95;1.92;;;22.40;34.60;;;;;;5049297;28;20055;-61
2021/01/22 00:41:52;;;;;;;3.67;1.73;;;22.40;34.60;;;;;;5048463;28;20077;-61
2021/01/22 00:44:19;;;;;;;4.40;1.90;;;22.40;34.60;;;;;;5049549;28;20124;-61
2021/01/22 00:46:46;;;;;;;3.17;1.50;;;22.40;34.60;;;;;;5049055;28;20124;-61
2021/01/22 00:49:12;;;;;;;2.47;1.75;;;22.40;34.60;;;;;;5049058;28;20048;-61
2021/01/22 00:51:39;;;;;;;2.83;1.52;;;22.40;34.60;;;;;;5048858;28;20296;-61
2021/01/22 00:54:06;;;;;;;3.08;1.80;;;22.40;34.60;;;;;;5049061;28;20442;-64
2021/01/22 00:56:32;;;;;;;4.07;1.80;;;22.40;34.60;;;;;;5049050;28;20550;-61
2021/01/22 00:58:59;;;;;;;2.45;1.60;;;22.40;34.60;;;;;;5048934;28;20544;-61
2021/01/22 01:01:27;;;;;;;3.90;1.90;;;22.40;34.60;;;;;;5048326;28;20461;-61
2021/01/22 01:03:54;;;;;;;2.85;1.40;;;22.40;34.60;;;;;;5048443;28;20076;-61
2021/01/22 01:06:20;;;;;;;3.95;2.03;;;22.40;34.60;;;;;;5048663;28;20111;-61
2021/01/22 01:08:47;;;;;;;2.17;1.73;;;22.40;34.60;;;;;;5049140;28;20186;-61
2021/01/22 01:11:14;;;;;;;2.28;1.65;;;22.40;34.60;;;;;;5048585;28;20084;-61
2021/01/22 01:13:43;;;;;;;2.63;1.40;;;22.40;34.60;;;;;;5049019;28;20140;-61
2021/01/22 01:16:10;;;;;;;3.25;1.77;;;22.40;34.60;;;;;;5047721;28;20080;-61
2021/01/22 01:18:37;;;;;;;2.22;1.55;;;22.40;34.60;;;;;;5048285;28;20128;-61
2021/01/22 01:21:04;;;;;;;2.50;1.50;;;22.40;34.60;;;;;;5048356;28;20041;-61
2021/01/22 01:23:44;;;;;;;2.08;1.35;;;22.40;34.60;;;;;;5047326;28;20052;-61
2021/01/22 01:26:10;;;;;;;2.17;1.48;;;22.40;34.60;;;;;;5047255;28;20049;-61
2021/01/22 01:28:37;;;;;;;2.55;1.63;;;22.40;34.60;;;;;;5048441;28;20044;-61
2021/01/22 01:31:04;;;;;;;3.13;1.60;;;22.30;34.60;;;;;;5048600;28;20510;-61
2021/01/22 01:33:30;;;;;;;3.75;1.83;;;22.30;34.60;;;;;;5047704;28;20091;-61
2021/01/22 01:36:01;;;;;;;1.77;1.20;;;22.30;34.60;;;;;;5048182;28;20057;-61
2021/01/22 01:38:28;;;;;;;2.72;1.50;;;22.30;34.60;;;;;;5046698;28;20053;-61
2021/01/22 01:40:55;;;;;;;2.55;1.50;;;22.30;34.60;;;;;;5048241;28;20055;-61
2021/01/22 01:43:25;;;;;;;2.65;1.33;;;22.30;34.60;;;;;;5048295;28;20045;-61
2021/01/22 01:45:52;;;;;;;2.40;1.33;;;22.30;34.60;;;;;;5047745;28;20049;-61
2021/01/22 01:48:19;;;;;;;1.75;1.20;;;22.30;34.60;;;;;;5047648;28;20073;-64
2021/01/22 01:50:46;;;;;;;2.08;1.33;;;22.30;34.60;;;;;;5048036;28;20410;-61
2021/01/22 01:53:13;;;;;;;1.88;1.13;;;22.30;34.60;;;;;;5046249;28;20159;-61
2021/01/22 01:55:40;;;;;;;1.50;1.13;;;22.30;34.60;;;;;;5048107;28;20136;-61
2021/01/22 01:58:07;;;;;;;1.85;1.20;;;22.30;34.60;;;;;;5047643;28;20420;-61
2021/01/22 02:00:34;;;;;;;4.03;1.63;;;22.30;34.60;;;;;;5047875;28;20590;-61
2021/01/22 02:03:02;;;;;;;2.00;1.25;;;22.30;34.60;;;;;;5048220;28;20131;-61
2021/01/22 02:05:29;;;;;;;1.85;1.27;;;22.30;34.60;;;;;;5046312;28;20055;-61
2021/01/22 02:07:56;;;;;;;1.38;1.20;;;22.30;34.60;;;;;;5047237;28;20469;-60
2021/01/22 02:10:23;;;;;;;2.25;1.33;;;22.30;34.60;;;;;;5047761;28;20541;-61
2021/01/22 02:12:51;;;;;;;3.53;1.70;;;22.30;34.50;;;;;;5046293;28;20560;-61
2021/01/22 02:15:18;;;;;;;2.70;1.60;;;22.30;34.60;;;;;;5047172;28;20344;-61
2021/01/22 02:17:46;;;;;;;1.92;1.30;;;22.30;34.60;;;;;;5046296;28;20080;-61
2021/01/22 02:20:38;;;;;;;2.55;1.33;;;22.30;34.60;;;;;;5046181;28;20509;-61
2021/01/22 02:23:05;;;;;;;3.10;1.38;;;22.30;34.60;;;;;;5047653;28;20108;-61
2021/01/22 02:25:36;;;;;;;1.83;1.40;;;22.30;34.60;;;;;;5046479;28;20053;-61
2021/01/22 02:28:08;;;;;;;2.22;1.20;;;22.30;34.60;;;;;;5047466;28;20121;-61
2021/01/22 02:30:35;;;;;;;1.48;1.05;;;22.30;34.60;;;;;;5047115;28;20045;-61
2021/01/22 02:33:05;;;;;;;3.10;1.27;;;22.30;34.60;;;;;;5047868;28;20461;-61
2021/01/22 02:35:35;;;;;;;1.65;1.10;;;22.30;34.60;;;;;;5047937;28;20055;-61
2021/01/22 02:38:03;;;;;;;2.67;1.40;;;22.30;34.60;;;;;;5046728;28;20537;-61
2021/01/22 02:40:32;;;;;;;1.35;1.00;;;22.20;34.50;;;;;;5045662;28;20053;-61
2021/01/22 02:43:01;;;;;;;1.08;1.00;;;22.20;34.50;;;;;;5046939;28;20128;-61
2021/01/22 02:45:29;;;;;;;1.20;1.08;;;22.20;34.50;;;;;;5047126;28;20052;-61
2021/01/22 02:47:57;;;;;;;1.85;1.15;;;22.20;34.50;;;;;;5051454;28;20080;-61
2021/01/22 02:50:32;;;;;;;2.00;1.40;;;22.20;34.50;;;;;;5050904;28;20059;-61
2021/01/22 02:53:01;;;;;;;1.30;0.90;;;22.20;34.50;;;;;;5048958;28;20083;-61
2021/01/22 02:55:29;;;;;;;1.30;1.20;;;22.20;34.50;;;;;;5050390;28;20244;-61
2021/01/22 02:58:16;;;;;;;0.90;0.90;;;22.20;34.50;;;;;;5049722;28;20080;-61
2021/01/22 03:00:48;;;;;;;2.28;1.05;;;22.30;34.60;;;;;;5051573;28;20449;-64
2021/01/22 03:03:45;;;;;;;1.33;0.80;;;22.20;34.50;;;;;;5052240;28;20076;-62
2021/01/22 03:06:20;;;;;;;1.13;0.90;;;22.20;34.50;;;;;;5046563;28;20132;-61
2021/01/22 03:08:50;;;;;;;1.08;0.75;;;22.30;34.60;;;;;;5047331;28;20128;-61
2021/01/22 03:11:18;;;;;;;3.42;2.00;;;22.20;34.50;;;;;;5046727;28;20510;-61
2021/01/22 03:13:48;;;;;;;0.93;0.77;;;22.30;34.60;;;;;;5046857;28;20041;-61
2021/01/22 03:16:15;;;;;;;0.95;0.77;;;22.30;34.60;;;;;;5046929;28;20045;-61
2021/01/22 03:19:00;;;;;;;1.15;0.80;;;22.20;34.50;;;;;;5028964;28;20254;-65
2021/01/22 03:21:27;;;;;;;1.60;0.82;;;22.20;34.50;;;;;;5046973;28;20049;-61
2021/01/22 03:23:54;;;;;;;1.40;0.85;;;22.20;34.50;;;;;;5046795;28;20051;-61
2021/01/22 03:26:21;;;;;;;1.05;0.60;;;22.20;34.50;;;;;;5031523;28;20083;-61
2021/01/22 03:28:47;;;;;;;1.45;1.15;;;22.10;34.40;;;;;;5049493;28;20212;-61
2021/01/22 03:31:14;;;;;;;1.73;1.02;;;22.20;34.50;;;;;;5049147;28;20554;-61
2021/01/22 03:33:41;;;;;;;1.48;0.95;;;22.20;34.50;;;;;;5050717;28;20045;-61
2021/01/22 03:36:08;;;;;;;2.10;1.20;;;22.10;34.50;;;;;;5050125;28;20045;-61
2021/01/22 03:38:35;;;;;;;1.25;1.05;;;22.20;34.50;;;;;;5050270;28;20052;-61
2021/01/22 03:41:03;;;;;;;1.98;0.95;;;22.10;34.40;;;;;;5049909;28;20063;-61
2021/01/22 03:43:29;;;;;;;1.45;0.95;;;22.10;34.40;;;;;;5050505;28;20087;-61
2021/01/22 03:45:56;;;;;;;1.48;1.02;;;22.10;34.40;;;;;;5048400;28;20084;-61
2021/01/22 03:48:23;;;;;;;1.38;0.85;;;22.10;34.40;;;;;;5050455;28;20041;-61
2021/01/22 03:50:49;;;;;;;1.20;0.90;;;22.10;34.40;;;;;;5050495;28;20118;-61
2021/01/22 03:53:16;;;;;;;1.23;0.90;;;22.10;34.50;;;;;;5048305;28;20049;-61
2021/01/22 03:55:52;;;;;;;0.73;0.70;;;22.10;35.00;;;;;;5050212;28;20076;-61
2021/01/22 03:58:19;;;;;;;0.68;0.65;;;22.20;34.50;;;;;;5049913;28;20045;-61
2021/01/22 04:00:46;;;;;;;0.98;0.73;;;22.20;34.50;;;;;;5049838;28;20134;-61
2021/01/22 04:03:13;;;;;;;1.90;1.02;;;22.20;34.50;;;;;;5050786;28;20646;-61
2021/01/22 04:05:40;;;;;;;0.82;0.65;;;22.20;34.50;;;;;;5049308;28;20053;-61
2021/01/22 04:08:07;;;;;;;0.95;0.88;;;22.20;34.50;;;;;;5050630;28;20098;-61
2021/01/22 04:10:33;;;;;;;0.73;0.70;;;22.10;34.40;;;;;;5049568;28;20457;-61
2021/01/22 04:13:00;;;;;;;0.80;0.77;;;22.10;34.40;;;;;;5050217;28;20053;-61
2021/01/22 04:15:27;;;;;;;0.60;0.60;;;22.10;34.40;;;;;;5031597;28;20048;-61
2021/01/22 04:17:54;;;;;;;1.00;0.70;;;22.10;34.50;;;;;;5049652;28;20044;-62
2021/01/22 04:20:21;;;;;;;1.10;0.77;;;22.10;34.40;;;;;;5049395;28;20275;-61
2021/01/22 04:22:51;;;;;;;1.52;0.80;;;22.10;34.40;;;;;;5049603;28;20182;-61
2021/01/22 04:25:18;;;;;;;1.15;0.90;;;22.10;34.50;;;;;;5049908;28;20064;-61
2021/01/22 04:27:46;;;;;;;1.08;0.88;;;22.10;34.50;;;;;;5049445;28;20049;-61
2021/01/22 04:30:13;;;;;;;1.50;0.70;;;22.10;34.50;;;;;;5049158;28;20132;-61
2021/01/22 04:32:41;;;;;;;0.90;0.90;;;22.10;34.50;;;;;;5049407;28;20176;-61
2021/01/22 04:35:13;;;;;;;0.80;0.80;;;22.10;34.50;;;;;;5049171;28;20044;-61
2021/01/22 04:37:41;;;;;;;0.80;0.73;;;22.10;34.60;;;;;;5048779;28;20041;-61
2021/01/22 04:40:12;;;;;;;0.65;0.65;;;22.10;34.60;;;;;;5048150;28;20052;-61
2021/01/22 04:42:40;;;;;;;1.02;0.75;;;22.00;34.50;;;;;;5046657;28;20049;-61
2021/01/22 04:45:12;;;;;;;0.70;0.70;;;22.10;34.50;;;;;;5049177;28;20478;-61
2021/01/22 04:47:39;;;;;;;0.70;0.57;;;22.10;34.50;;;;;;5048862;28;20494;-61
2021/01/22 04:50:09;;;;;;;0.88;0.88;;;22.10;34.50;;;;;;5048749;28;20049;-61
2021/01/22 04:52:37;;;;;;;1.10;1.00;;;22.10;34.50;;;;;;5049118;28;20662;-61
2021/01/22 04:55:10;;;;;;;0.88;0.60;;;22.10;34.50;;;;;;5048478;28;20084;-61
2021/01/22 04:57:42;;;;;;;2.17;1.20;;;22.10;34.40;;;;;;5048766;28;20041;-61
2021/01/22 05:00:10;;;;;;;0.85;0.60;;;22.10;34.40;;;;;;5047399;28;20081;-61
2021/01/22 05:02:38;;;;;;;1.33;0.85;;;22.10;34.40;;;;;;5048162;28;20060;-61
2021/01/22 05:05:07;;;;;;;0.77;0.65;;;22.10;34.50;;;;;;5048543;28;20495;-61
2021/01/22 05:07:34;;;;;;;1.05;0.73;;;22.00;34.40;;;;;;5047628;28;20049;-61
2021/01/22 05:10:01;;;;;;;0.85;0.60;;;22.10;34.50;;;;;;5047594;28;20080;-61
2021/01/22 05:12:40;;;;;;;1.00;0.60;;;22.00;34.40;;;;;;5047223;28;20048;-61
2021/01/22 05:15:25;;;;;;;0.77;0.52;;;22.00;34.40;;;;;;5045857;28;20187;-61
2021/01/22 05:18:04;;;;;;;1.08;0.65;;;22.10;34.50;;;;;;5045358;28;20053;-60
2021/01/22 05:20:42;;;;;;;1.10;0.90;;;22.10;34.50;;;;;;5047154;28;20059;-61
2021/01/22 05:23:10;;;;;;;2.40;0.95;;;22.00;34.50;;;;;;5048036;28;20106;-61
2021/01/22 05:25:58;;;;;;;0.75;0.50;;;22.00;34.50;;;;;;5048098;28;20517;-61
2021/01/22 05:28:43;;;;;;;1.45;0.90;;;22.00;34.50;;;;;;5039730;28;20069;-61
2021/01/22 05:31:12;;;;;;;1.00;0.63;;;22.00;34.50;;;;;;5033891;28;20092;-61
2021/01/22 05:33:52;;;;;;;0.40;0.40;;;22.00;34.50;;;;;;5048177;28;20060;-61
2021/01/22 05:36:29;;;;;;;1.13;0.60;;;22.00;34.50;;;;;;5047398;28;20128;-61
2021/01/22 05:38:57;;;;;;;0.60;0.60;;;22.00;34.50;;;;;;5047738;28;20088;-61
2021/01/22 05:41:24;;;;;;;0.75;0.65;;;22.00;34.50;;;;;;5047148;28;20076;-61
2021/01/22 05:43:51;;;;;;;1.30;0.73;;;22.00;34.50;;;;;;5048519;28;20045;-61
2021/01/22 05:46:21;;;;;;;0.50;0.50;;;22.00;34.40;;;;;;5048188;28;20474;-61
2021/01/22 05:49:05;;;;;;;;;;;22.00;34.40;;;;;;5049216;28;20433;-61
2021/01/22 05:51:33;;;;;;;0.75;0.60;;;22.00;34.40;;;;;;5037196;28;20394;-61
2021/01/22 05:54:00;;;;;;;0.52;0.52;;;22.00;34.40;;;;;;5045359;28;20056;-61
2021/01/22 05:56:27;;;;;;;0.75;0.75;;;22.00;34.40;;;;;;5030922;28;20069;-61
2021/01/22 05:58:54;;;;;;;1.38;0.50;;;22.00;34.40;;;;;;5033313;28;20102;-61
2021/01/22 06:01:22;;;;;;;0.50;0.50;;;22.00;34.40;;;;;;5028464;28;20041;-61
2021/01/22 06:03:50;;;;;;;0.80;0.70;;;22.00;34.40;;;;;;5047623;28;20413;-61
2021/01/22 06:06:18;;;;;;;0.95;0.45;;;22.00;34.40;;;;;;5037330;28;20049;-61
2021/01/22 06:08:54;;;;;;;1.02;0.75;;;22.00;34.40;;;;;;5035764;28;20045;-61
2021/01/22 06:11:26;;;;;;;0.68;0.60;;;22.00;34.40;;;;;;5038244;28;20049;-61
2021/01/22 06:13:59;;;;;;;1.63;0.95;;;22.00;34.30;;;;;;5034912;28;20037;-61
2021/01/22 06:16:27;;;;;;;0.63;0.63;;;22.10;34.40;;;;;;5034396;28;20550;-61
2021/01/22 06:19:06;;;;;;;0.70;0.70;;;22.10;34.30;;;;;;5042140;28;20045;-64
2021/01/22 06:21:48;;;;;;;0.80;0.68;;;22.10;34.20;;;;;;5037197;28;20045;-61
2021/01/22 06:24:16;;;;;;;0.63;0.50;;;22.10;34.10;;;;;;5039796;28;20410;-61
2021/01/22 06:26:43;;;;;;;0.60;0.60;;;22.10;34.10;;;;;;5043460;28;20060;-61
2021/01/22 06:29:11;;;;;;;0.65;0.60;;;22.10;34.00;;;;;;5039340;28;20069;-63
2021/01/22 06:31:38;;;;;;;0.88;0.70;;;22.20;34.00;;;;;;5039824;28;20049;-61
2021/01/22 06:34:06;;;;;;;0.65;0.57;;;22.30;34.10;;;;;;5019896;28;20040;-61
2021/01/22 06:36:33;;;;;;;0.80;0.70;;;22.30;34.00;;;;;;5038800;28;20072;-61
2021/01/22 06:39:02;;;;;;;1.23;0.88;;;22.30;33.90;;;;;;5029991;28;20045;-64
2021/01/22 06:41:32;;;;;;;1.00;0.70;;;22.40;33.80;;;;;;5038655;28;20049;-60
2021/01/22 06:44:00;;;;;;;1.40;0.77;;;22.40;33.80;;;;;;5041061;28;20033;-65
2021/01/22 06:46:32;;;;;;;1.15;0.70;;;22.50;34.00;;;;;;5047546;28;20052;-64
2021/01/22 06:49:02;;;;;;;0.75;0.45;;;22.50;33.80;;;;;;5036193;28;20052;-67
2021/01/22 06:51:33;;;;;;;0.85;0.77;;;22.50;33.60;;;;;;5012762;28;20037;-63
2021/01/22 06:54:15;;;;;;;0.90;0.70;;;22.60;34.00;;;;;;5035534;28;20148;-64
2021/01/22 06:57:09;;;;;;;1.25;0.75;;;22.60;34.60;;;;;;5042064;28;20068;-64
2021/01/22 06:59:39;;;;;;;0.90;0.65;;;22.60;34.20;;;;;;5024185;28;20140;-63
2021/01/22 07:02:35;;;;;;;2.38;0.80;;;22.70;34.20;;;;;;5038795;28;20045;-63
2021/01/22 07:05:02;;;;;;;1.90;0.65;;;22.70;34.30;;;;;;5041973;28;20053;-63
2021/01/22 07:07:46;;;;;;;2.10;1.00;;;22.80;34.30;;;;;;5044559;28;20057;-60
2021/01/22 07:10:14;;;;;;;1.77;1.15;;;22.90;34.40;;;;;;5023622;28;20464;-63
2021/01/22 07:12:45;;;;;;;0.82;0.80;;;23.00;34.50;;;;;;5038685;28;20067;-64
2021/01/22 07:15:27;;;;;;;0.70;0.68;;;23.00;34.30;;;;;;5026640;28;20040;-63
2021/01/22 07:17:59;;;;;;;1.35;0.85;;;23.10;34.30;;;;;;5035791;28;20044;-63
2021/01/22 07:20:28;;;;;;;0.77;0.77;;;23.20;34.30;;;;;;5033573;28;20486;-61
2021/01/22 07:22:59;;;;;;;2.22;1.20;;;23.20;34.40;;;;;;5037579;28;20534;-64
2021/01/22 07:25:40;;;;;;;1.45;0.95;;;23.20;34.20;;;;;;5042249;28;20119;-64
2021/01/22 07:28:24;;;;;;;0.93;0.68;;;23.20;34.20;;;;;;5036997;28;20053;-63
2021/01/22 07:30:51;;;;;;;0.95;0.90;;;23.30;34.30;;;;;;5039923;28;20128;-64
2021/01/22 07:33:36;;;;;;;4.45;1.10;;;23.30;34.30;;;;;;5036982;28;20128;-63
2021/01/22 07:36:19;;;;;;;0.95;0.95;;;23.30;34.30;;;;;;5040202;28;20054;-61
2021/01/22 07:38:50;;;;;;;2.08;1.13;;;23.30;34.40;;;;;;5037705;28;20153;-62
2021/01/22 07:41:21;;;;;;;0.90;0.90;;;23.30;34.30;;;;;;5037702;28;20056;-60
2021/01/22 07:44:00;;;;;;;2.03;1.20;;;23.30;34.40;;;;;;5036295;28;20045;-65
2021/01/22 07:46:43;;;;;;;1.23;1.10;;;23.30;34.30;;;;;;5017985;28;20441;-64
2021/01/22 07:49:09;;;;;;;1.50;0.82;;;23.30;34.40;;;;;;5038284;28;20053;-63
2021/01/22 07:51:37;;;;;;;1.55;1.02;;;23.30;34.40;;;;;;5035396;28;20181;-65
2021/01/22 07:54:05;;;;;;;1.27;0.98;;;23.40;34.50;;;;;;5033179;28;20172;-61
2021/01/22 07:56:40;;;;;;;2.30;1.38;;;23.40;34.60;;;;;;5039742;28;20126;-61
2021/01/22 07:59:12;;;;;;;3.03;1.08;;;23.40;34.60;;;;;;5038726;28;20081;-63
2021/01/22 08:01:39;;;;;;;1.70;1.20;;;23.50;34.60;;;;;;5035958;28;20080;-63
2021/01/22 08:04:08;;;;;;;2.92;1.23;;;23.50;34.50;;;;;;5036041;28;20045;-66
2021/01/22 08:06:49;;;;;;;7.03;1.60;;;23.60;34.50;;;;;;5041180;28;20522;-65
2021/01/22 08:09:17;;;;;;;3.35;0.93;;;23.60;34.40;;;;;;5035919;28;20128;-65
2021/01/22 08:11:47;;;;;;;1.42;1.33;;;23.70;34.40;;;;;;5034149;28;20091;-62
2021/01/22 08:14:31;;;;;;;;;;;23.70;34.40;;;;;;5039618;28;20134;-61
2021/01/22 08:16:59;;;;;;;2.15;1.58;;;23.70;34.40;;;;;;5041002;28;20006;-61
2021/01/22 08:19:28;;;;;;;2.08;1.20;;;23.80;34.50;;;;;;5036286;28;20118;-61
2021/01/22 08:21:56;;;;;;;2.42;1.83;;;23.80;34.50;;;;;;5040126;28;20117;-64
2021/01/22 08:24:23;;;;;;;3.17;1.42;;;23.80;34.50;;;;;;5036047;28;20041;-64
2021/01/22 08:27:03;;;;;;;2.33;1.90;;;23.80;34.50;;;;;;5040558;28;20051;-62
2021/01/22 08:29:34;;;;;;;2.67;1.75;;;23.80;34.50;;;;;;5037328;28;20144;-65
2021/01/22 08:32:03;;;;;;;6.25;1.60;;;23.90;34.50;;;;;;5038460;28;20569;-61
2021/01/22 08:34:32;;;;;;;2.58;1.65;;;23.90;34.40;;;;;;5041729;28;20052;-65
2021/01/22 08:37:32;;;;;;;2.78;1.73;;;23.90;34.40;;;;;;5041092;28;20087;-63
2021/01/22 08:39:59;;;;;;;2.15;1.63;;;23.90;34.40;;;;;;5035386;28;20077;-64
2021/01/22 08:42:29;;;;;;;3.00;1.73;;;24.00;34.30;;;;;;5014503;28;20045;-65
2021/01/22 08:45:00;;;;;;;4.97;1.85;;;24.00;34.20;;;;;;5038472;28;20166;-64
2021/01/22 08:47:30;;;;;;;4.40;1.73;;;24.10;34.20;;;;;;5038587;28;20052;-64
2021/01/22 08:50:03;;;;;;;4.22;2.25;;;24.00;34.10;;;;;;5020270;28;20049;-62
2021/01/22 08:52:30;;;;;;;2.97;1.73;;;24.10;34.10;;;;;;5034069;28;20143;-61
2021/01/22 08:54:58;;;;;;;2.22;1.90;;;24.10;34.10;;;;;;5036254;28;20928;-62
2021/01/22 08:57:28;;;;;;;2.45;2.03;;;24.10;34.20;;;;;;5038211;28;20052;-63
2021/01/22 08:59:57;;;;;;;2.97;2.10;;;24.10;34.30;;;;;;5036226;28;20080;-65
2021/01/22 09:02:41;;;;;;;2.92;2.15;;;24.10;34.30;;;;;;5035339;28;20063;-63
2021/01/22 09:05:12;;;;;;;7.05;2.30;;;24.10;34.30;;;;;;5018881;28;20438;-63
2021/01/22 09:07:40;;;;;;;3.15;2.22;;;24.10;34.10;;;;;;5033347;28;20095;-62
2021/01/22 09:10:29;;;;;;;3.83;2.42;;;24.10;34.10;;;;;;5035636;28;20103;-65
2021/01/22 09:13:08;;;;;;;3.30;2.28;;;24.10;34.20;;;;;;5035789;28;20101;-63
2021/01/22 09:15:35;;;;;;;5.53;3.05;;;24.10;34.30;;;;;;5018406;28;20462;-68
2021/01/22 09:18:13;;;;;;;4.13;2.65;;;24.10;34.20;;;;;;5037406;28;20045;-65
2021/01/22 09:20:43;;;;;;;2.85;2.30;;;24.10;34.20;;;;;;5033042;28;20136;-62
2021/01/22 09:23:10;;;;;;;4.03;2.47;;;24.10;34.40;;;;;;5034744;28;20515;-67
2021/01/22 09:25:37;;;;;;;5.53;2.83;;;24.10;34.00;;;;;;5036487;28;20145;-66
2021/01/22 09:28:03;;;;;;;5.80;3.17;;;24.00;34.00;;;;;;5038891;28;20116;-63
2021/01/22 09:30:30;;;;;;;4.72;3.17;;;24.10;34.10;;;;;;5052336;28;20402;-62
2021/01/22 09:37:16;;;;;;;5.03;3.67;;;24.10;34.30;;;;;;5057403;28;20128;-66
2021/01/22 09:39:48;;;;;;;4.80;3.17;;;24.10;34.20;;;;;;5056956;28;20045;-62
2021/01/22 09:42:15;;;;;;;3.70;3.03;;;24.20;34.30;;;;;;5054212;28;20137;-65
2021/01/22 09:44:42;;;;;;;7.47;3.88;;;24.20;34.20;;;;;;5055106;28;20449;-66
2021/01/22 09:47:09;;;;;;;5.38;3.17;;;24.20;34.20;;;;;;5031353;28;20137;-64
2021/01/22 09:49:36;;;;;;;5.78;3.30;;;24.20;34.20;;;;;;5056927;28;20072;-66
2021/01/22 09:52:03;;;;;;;8.10;3.83;;;24.20;34.10;;;;;;5028100;28;20048;-66
2021/01/22 09:54:29;;;;;;;6.28;3.78;;;24.20;34.10;;;;;;5044596;28;20080;-65
2021/01/22 09:56:56;;;;;;;5.40;3.80;;;24.20;34.10;;;;;;5036077;28;20080;-65
2021/01/22 09:59:23;;;;;;;5.20;3.45;;;24.30;34.10;;;;;;5034669;28;20155;-65
2021/01/22 10:01:50;;;;;;;4.93;3.28;;;24.30;34.00;;;;;;5017317;28;20078;-64
2021/01/22 10:04:17;;;;;;;7.25;3.85;;;24.30;34.20;;;;;;5037408;28;20080;-62
2021/01/22 10:06:44;;;;;;;9.23;3.85;;;24.30;34.30;;;;;;5035809;28;20770;-65
2021/01/22 10:09:11;;;;;;;6.18;4.32;;;24.30;34.20;;;;;;5037619;28;20052;-66
2021/01/22 10:12:01;;;;;;;8.20;4.65;;;24.30;34.20;;;;;;5048271;28;20128;-66
2021/01/22 10:21:41;;;;;;;;;;;24.40;34.00;;;;;;5036913;28;20100;-65
2021/01/22 10:24:08;;;;;;;14.68;5.85;;;24.40;34.10;;;;;;5036874;28;20005;-67
2021/01/22 10:26:34;;;;;;;10.65;4.95;;;24.40;34.20;;;;;;5018621;28;20049;-65
2021/01/22 10:29:02;;;;;;;10.70;6.00;;;24.40;34.20;;;;;;5035581;28;20100;-66
2021/01/22 10:31:28;;;;;;;12.65;6.45;;;24.40;34.00;;;;;;5019673;28;20453;-69
2021/01/22 10:33:55;;;;;;;12.52;6.57;;;24.50;33.80;;;;;;5036238;28;20049;-64
2021/01/22 10:36:23;;;;;;;14.45;7.03;;;24.40;33.40;;;;;;5036205;28;20498;-64
2021/01/22 10:38:49;;;;;;;24.88;7.70;;;24.40;33.30;;;;;;5056375;28;20567;-66
2021/01/22 10:41:16;;;;;;;16.98;7.55;;;24.40;33.30;;;;;;5022670;28;20048;-66
2021/01/22 10:43:43;;;;;;;18.48;7.88;;;24.50;33.20;;;;;;5038688;28;20095;-68
2021/01/22 10:46:13;;;;;;;23.38;8.75;;;24.50;33.10;;;;;;5033528;28;20049;-65
2021/01/22 10:48:41;;;;;;;15.60;7.28;;;24.50;33.00;;;;;;5034552;28;20080;-65
2021/01/22 10:51:08;;;;;;;18.38;8.63;;;24.50;32.90;;;;;;5031482;28;20102;-63
2021/01/22 10:53:35;;;;;;;15.48;8.00;;;24.50;33.00;;;;;;5037849;28;20052;-64
2021/01/22 10:56:03;;;;;;;23.98;8.85;;;24.60;33.00;;;;;;5036099;28;20379;-66
2021/01/22 10:58:30;;;;;;;19.48;8.85;;;24.60;33.10;;;;;;5033309;28;20050;-61
2021/01/22 11:00:57;;;;;;;20.05;9.65;;;24.60;33.00;;;;;;5040905;28;20040;-65
2021/01/22 11:03:24;;;;;;;20.42;8.48;;;24.60;32.90;;;;;;5038411;28;20068;-65
2021/01/22 11:05:51;;;;;;;16.23;7.30;;;24.70;32.80;;;;;;5037949;28;20162;-64
2021/01/22 11:08:17;;;;;;;20.52;8.75;;;24.70;32.50;;;;;;5025223;28;20617;-62
2021/01/22 11:10:44;;;;;;;19.23;8.75;;;24.70;32.70;;;;;;5038678;28;20048;-65
2021/01/22 11:13:11;;;;;;;19.10;8.10;;;24.70;32.80;;;;;;5049642;28;20444;-62
2021/01/22 11:15:38;;;;;;;20.58;7.88;;;24.70;32.80;;;;;;5040686;28;20045;-62
2021/01/22 11:18:05;;;;;;;23.30;8.65;;;24.80;32.80;;;;;;5022236;28;21055;-65
2021/01/22 11:20:31;;;;;;;20.30;9.27;;;24.80;32.80;;;;;;5039145;28;20460;-62
2021/01/22 11:22:59;;;;;;;15.38;8.50;;;24.80;32.80;;;;;;5034451;28;20049;-65
2021/01/22 11:25:26;;;;;;;19.40;7.95;;;24.80;32.70;;;;;;5034959;28;20146;-65
2021/01/22 11:27:53;;;;;;;21.27;9.02;;;24.90;32.70;;;;;;5032376;28;20057;-66
2021/01/22 11:30:20;;;;;;;18.63;8.50;;;24.90;32.70;;;;;;5024059;28;20055;-61
2021/01/22 11:32:47;;;;;;;18.60;7.65;;;24.90;32.60;;;;;;5022203;28;20072;-65
2021/01/22 11:35:17;;;;;;;21.30;8.75;;;24.90;32.60;;;;;;5035618;28;20049;-62
2021/01/22 11:37:46;;;;;;;19.02;8.65;;;24.90;32.60;;;;;;5034618;28;20186;-65
2021/01/22 11:40:14;;;;;;;18.30;7.93;;;25.00;32.60;;;;;;5047855;28;20053;-65
2021/01/22 11:42:41;;;;;;;20.75;9.43;;;25.00;32.60;;;;;;5031020;28;20143;-66
2021/01/22 11:45:08;;;;;;;20.42;8.95;;;25.00;32.50;;;;;;5043381;28;20049;-64
2021/01/22 11:59:17;;;;;;;19.05;8.30;;;25.10;32.20;;;;;;5045089;28;20045;-65
2021/01/22 12:01:44;;;;;;;24.15;9.80;;;25.20;32.20;;;;;;5040778;28;20518;-66
2021/01/22 12:04:11;;;;;;;24.38;9.52;;;25.20;32.10;;;;;;5058589;28;20128;-62
2021/01/22 12:06:38;;;;;;;19.67;8.88;;;25.20;32.00;;;;;;5058470;28;20075;-62
2021/01/22 12:09:06;;;;;;;27.42;9.65;;;25.20;32.00;;;;;;5051055;28;20079;-65
2021/01/22 12:11:33;;;;;;;21.38;8.50;;;25.20;31.90;;;;;;5057949;28;20049;-62
2021/01/22 12:13:59;;;;;;;24.92;8.68;;;25.20;31.90;;;;;;5052534;28;20102;-65
2021/01/22 12:16:27;;;;;;;24.90;8.82;;;25.30;32.10;;;;;;5019868;28;20717;-66
2021/01/22 12:18:54;;;;;;;21.85;8.02;;;25.30;32.30;;;;;;5037889;28;20658;-65
2021/01/22 12:21:21;;;;;;;18.75;8.55;;;25.30;32.30;;;;;;5041794;28;20037;-67
2021/01/22 12:23:48;;;;;;;21.58;8.23;;;25.20;32.30;;;;;;5040063;28;20482;-66
2021/01/22 12:26:30;;;;;;;14.18;6.35;;;25.30;32.40;;;;;;5040640;28;20064;-65
2021/01/22 12:28:59;;;;;;;18.02;7.68;;;25.30;32.40;;;;;;5041111;28;20110;-66
2021/01/22 12:31:26;;;;;;;17.10;7.22;;;25.20;32.50;;;;;;5038092;28;20076;-63
2021/01/22 12:33:53;;;;;;;18.92;6.30;;;25.20;32.50;;;;;;5041667;28;20075;-66
2021/01/22 12:36:20;;;;;;;17.85;6.60;;;25.20;32.50;;;;;;5037180;28;20068;-64
2021/01/22 12:38:47;;;;;;;16.88;6.15;;;25.20;32.40;;;;;;5025343;28;20084;-65
2021/01/22 12:41:14;;;;;;;17.58;4.95;;;25.20;32.30;;;;;;5016350;28;20549;-65
2021/01/22 12:43:41;;;;;;;22.42;5.75;;;25.20;32.10;;;;;;5032373;28;20080;-66
2021/01/22 12:46:08;;;;;;;15.50;5.65;;;25.20;31.90;;;;;;5033513;28;20052;-66
2021/01/22 12:48:35;;;;;;;15.30;5.35;;;25.20;31.90;;;;;;5039832;28;20045;-66
2021/01/22 13:45:41;;;;;;;71.03;24.05;;;25.00;33.50;;;;;;5035204;28;20107;-66
2021/01/22 13:48:08;;;;;;;65.80;21.70;;;25.00;34.00;;;;;;5053696;28;20045;-63
2021/01/22 13:50:35;;;;;;;60.67;22.05;;;24.90;34.20;;;;;;5054737;28;20440;-66
2021/01/22 13:53:03;;;;;;;69.30;22.02;;;24.90;34.30;;;;;;5052406;28;20092;-67
2021/01/22 13:55:30;;;;;;;68.40;20.10;;;25.00;34.70;;;;;;5054008;28;20122;-63
2021/01/22 13:57:56;;;;;;;64.00;20.23;;;24.90;34.50;;;;;;5054241;28;20135;-62
2021/01/22 14:00:23;;;;;;;55.05;19.30;;;25.00;34.70;;;;;;5053654;28;20128;-65
2021/01/22 14:02:50;;;;;;;53.80;16.35;;;25.00;34.50;;;;;;5054606;28;20433;-61
2021/01/22 14:05:17;;;;;;;48.30;17.50;;;24.90;34.30;;;;;;5053917;28;20497;-61
2021/01/22 14:07:44;;;;;;;54.42;18.85;;;24.90;34.30;;;;;;5053878;28;20132;-65
2021/01/22 14:10:11;;;;;;;48.30;16.75;;;24.90;34.90;;;;;;5052654;28;20076;-62
2021/01/22 14:12:38;;;;;;;55.97;17.17;;;24.90;35.30;;;;;;5053224;28;20532;-63
2021/01/22 14:15:06;;;;;;;46.67;15.65;;;24.90;35.90;;;;;;5036498;28;20083;-62